Pagrindinis puslapis
METAR-TAF:

METAR-TAF

Oro uostai :

Tabukas, Saudo Arabija

platuma: 28-22N, ilguma: 036-36E, Aukštis: 778 m

Dabartinis oras

Ataskaita buvo paskelbta 1 valandą ir 3 minutes, ne 03:00 UTC
Vėjas 9 kt iš Rytų
Temperatūra 18°C
Drėgmė 73%
Slėgis 1014 hPa
Matomumas 10 km arba daugiau
Mažai debesys ne aukštis 4000 ft

METAR: OETB 130300Z 09009KT 9999 FEW040 18/13 Q1014 NOSIG

Laikas: 07:03 (04:03 UTC)

Prognozė

Ataskaita buvo paskelbta 5 valandos ir 3 minutes, ne 23:00 UTC
Prognozė galioja nuo 13 metu 00 UTC su 14 metu 06 UTC
Vėjas 8 kt iš Rytų
Matomumas 10 km arba daugiau
Mažai debesys ne aukštis 4000 ft
Išsisklaidę debesys ne aukštis 10000 ft
Tapsmas
nuo 13 metu 06 UTC su 13 metu 08 UTC
Vėjas 14 kt iš Rytų
Laikinai
nuo 13 metu 08 UTC su 13 metu 16 UTC
Matomumas: 6000 m
Mažai debesys ne aukštis 3500 ft, Liūtiniai kamuoliniai debesys.
Išsisklaidę debesys ne aukštis 4000 ft
perkūnija, lietus

TAF: OETB 122300Z 1300/1406 09008KT 9999 FEW040 SCT100 BECMG 1306/1308 10014KT TEMPO 1308/1316 6000 TSRA FEW035CB SCT040

Orai ataskaitas ir orų prognozės (METAR, TAF).

turimą stotys yra geltonos ir raudonos taškus žemėlapyje.

Perkelti pele per norėdami pamatyti stoties vardą.

Tada spustelėkite, norėdami matyti oro stebėjimo ir prognozės.

Norėdami pakeisti žemėlapį: spustelėkite ant žalios mygtukų su juodo kryžiaus žemyn,; žalią mygtuką su brūkšneliu, jei norite nutolinti; arba žalių rodyklių gretimoms žemėlapius.


METAR-TAF: